Time;durP1;ratioP1;P1;durP2;ratioP2;P2;SDS_P1;SDS_P2;PMS_P1;PMS_P2;Temp;Humidity;BMP_temperature;BMP_pressure;BME280_temperature;BME280_humidity;BME280_pressure;Samples;Min_cycle;Max_cycle;Signal;HPM_P1;HPM_P2
2022/05/01 00:01:02;;;;;;;16.10;8.02;;;13.70;61.30;;;;;;5038999;28;20067;-77
2022/05/01 00:03:31;;;;;;;14.80;7.72;;;13.70;61.60;;;;;;5055745;28;20169;-77
2022/05/01 00:06:03;;;;;;;12.20;8.38;;;13.80;61.10;;;;;;5054717;28;20033;-77
2022/05/01 00:08:30;;;;;;;13.18;7.55;;;13.70;61.70;;;;;;5036717;28;20648;-77
2022/05/01 00:10:56;;;;;;;14.10;8.20;;;13.70;61.70;;;;;;5036083;28;20115;-77
2022/05/01 00:13:24;;;;;;;16.20;8.50;;;13.70;61.80;;;;;;5035745;28;20110;-77
2022/05/01 00:15:50;;;;;;;12.63;7.70;;;13.70;61.60;;;;;;5035788;28;20044;-77
2022/05/01 00:18:16;;;;;;;12.40;7.43;;;13.60;61.70;;;;;;5035842;28;20480;-77
2022/05/01 00:20:42;;;;;;;13.15;8.40;;;13.60;61.90;;;;;;5035583;28;20376;-77
2022/05/01 00:23:08;;;;;;;14.23;8.65;;;13.60;61.50;;;;;;5035999;28;20119;-77
2022/05/01 00:25:35;;;;;;;11.98;7.90;;;13.60;61.80;;;;;;5034498;28;20029;-77
2022/05/01 00:28:01;;;;;;;11.88;7.78;;;13.50;62.40;;;;;;5034255;28;20491;-77
2022/05/01 00:30:27;;;;;;;12.45;7.75;;;13.50;62.10;;;;;;5035523;28;20484;-77
2022/05/01 00:38:37;;;;;;;17.00;8.00;;;13.40;62.40;;;;;;5035699;28;20079;-77
2022/05/01 00:41:05;;;;;;;13.50;7.18;;;13.40;62.30;;;;;;5035419;28;20029;-77
2022/05/01 00:43:31;;;;;;;12.13;7.53;;;13.40;62.20;;;;;;5033825;28;20043;-77
2022/05/01 00:45:57;;;;;;;11.45;7.85;;;13.40;62.30;;;;;;5034186;28;20029;-76
2022/05/01 00:48:23;;;;;;;13.90;8.05;;;13.30;62.30;;;;;;5035378;28;20028;-77
2022/05/01 00:50:49;;;;;;;11.38;7.43;;;13.40;62.30;;;;;;5035099;28;20030;-77
2022/05/01 00:53:15;;;;;;;14.35;7.30;;;13.40;62.00;;;;;;5073524;28;20048;-77
2022/05/01 00:55:41;;;;;;;10.60;7.25;;;13.40;61.90;;;;;;5064642;28;20363;-76
2022/05/01 00:58:07;;;;;;;14.98;7.95;;;13.50;61.80;;;;;;5047000;28;20026;-77
2022/05/01 01:00:37;;;;;;;14.95;7.60;;;13.50;61.60;;;;;;5034785;28;20025;-77
2022/05/01 01:03:03;;;;;;;10.70;6.28;;;13.50;61.70;;;;;;5034972;28;20056;-77
2022/05/01 01:05:28;;;;;;;12.55;7.05;;;13.50;61.30;;;;;;5033676;28;20033;-77
2022/05/01 01:07:54;;;;;;;14.23;8.07;;;13.50;61.20;;;;;;5035044;28;20017;-77
2022/05/01 01:10:20;;;;;;;14.95;7.85;;;13.60;61.30;;;;;;5033732;28;20567;-77
2022/05/01 01:12:56;;;;;;;12.43;6.68;;;13.60;61.00;;;;;;5034634;28;20132;-76
2022/05/01 01:15:23;;;;;;;14.02;6.88;;;13.60;61.20;;;;;;5035158;28;20037;-76
2022/05/01 01:17:54;;;;;;;12.85;7.70;;;13.50;61.40;;;;;;5033521;28;20030;-77
2022/05/01 01:20:21;;;;;;;14.30;7.55;;;13.50;61.40;;;;;;5033884;28;20033;-77
2022/05/01 01:22:48;;;;;;;12.57;8.00;;;13.50;61.30;;;;;;5034966;28;20452;-77
2022/05/01 01:25:18;;;;;;;12.23;7.18;;;13.50;61.10;;;;;;5038922;28;20037;-77
2022/05/01 01:27:44;;;;;;;12.60;8.33;;;13.50;60.90;;;;;;5033486;28;20403;-77
2022/05/01 01:32:55;;;;;;;16.38;8.73;;;13.50;61.10;;;;;;5034709;28;20400;-77
2022/05/01 01:35:23;;;;;;;10.77;7.28;;;13.50;61.00;;;;;;5033758;28;20029;-76
2022/05/01 01:37:58;;;;;;;12.02;7.55;;;13.40;61.00;;;;;;5034805;28;20034;-77
2022/05/01 01:40:30;;;;;;;12.68;6.35;;;13.50;61.00;;;;;;5034911;28;20028;-77
2022/05/01 01:43:00;;;;;;;13.20;7.50;;;13.40;60.80;;;;;;5034706;28;20037;-77
2022/05/01 01:45:30;;;;;;;9.98;6.72;;;13.40;60.80;;;;;;5033092;28;20029;-77
2022/05/01 01:47:57;;;;;;;11.50;7.63;;;13.50;60.60;;;;;;5033053;28;20084;-77
2022/05/01 01:50:24;;;;;;;10.55;6.65;;;13.50;60.40;;;;;;5054100;28;20713;-77
2022/05/01 01:52:50;;;;;;;11.43;6.43;;;13.40;60.50;;;;;;5068981;28;20049;-77
2022/05/01 01:55:18;;;;;;;13.10;6.50;;;13.50;60.50;;;;;;5067715;28;20021;-77
2022/05/01 01:57:47;;;;;;;11.18;6.82;;;13.40;60.20;;;;;;5053220;28;20033;-77
2022/05/01 02:00:13;;;;;;;10.10;6.45;;;13.40;60.20;;;;;;5053018;28;20022;-77
2022/05/01 02:02:39;;;;;;;11.40;6.95;;;13.40;60.10;;;;;;5053163;28;20041;-77
2022/05/01 02:05:06;;;;;;;9.70;6.55;;;13.40;59.90;;;;;;5054218;28;20060;-77
2022/05/01 02:07:33;;;;;;;10.75;6.80;;;13.40;60.20;;;;;;5051115;28;20025;-77
2022/05/01 02:09:59;;;;;;;11.05;6.60;;;13.40;60.10;;;;;;5034119;28;20510;-77
2022/05/01 02:12:25;;;;;;;13.68;6.97;;;13.30;60.40;;;;;;5034633;28;20030;-77
2022/05/01 02:14:51;;;;;;;9.77;6.88;;;13.30;60.40;;;;;;5038068;28;20036;-77
2022/05/01 02:17:16;;;;;;;10.32;6.30;;;13.30;60.30;;;;;;5041802;28;20107;-76
2022/05/01 02:19:42;;;;;;;8.45;5.75;;;13.30;60.40;;;;;;5056951;28;20021;-77
2022/05/01 02:22:08;;;;;;;10.82;6.85;;;13.30;60.30;;;;;;5058015;28;20080;-77
2022/05/01 02:24:34;;;;;;;11.20;6.75;;;13.30;60.20;;;;;;5057826;28;20032;-77
2022/05/01 02:27:01;;;;;;;11.35;6.63;;;13.20;60.20;;;;;;5051863;28;20411;-77
2022/05/01 02:29:27;;;;;;;10.75;6.18;;;13.20;60.30;;;;;;5037843;28;20029;-77
2022/05/01 02:31:56;;;;;;;15.43;6.93;;;13.10;60.10;;;;;;5042662;28;20078;-77
2022/05/01 02:34:23;;;;;;;9.00;6.43;;;13.10;60.60;;;;;;5057992;28;20025;-76
2022/05/01 02:36:51;;;;;;;10.43;7.20;;;13.10;60.40;;;;;;5040487;28;20080;-77
2022/05/01 02:39:18;;;;;;;10.55;6.35;;;13.10;60.10;;;;;;5036446;28;20088;-77
2022/05/01 02:41:44;;;;;;;11.52;6.45;;;13.10;60.40;;;;;;5053137;28;20047;-77
2022/05/01 02:44:10;;;;;;;11.30;6.28;;;13.00;60.00;;;;;;5056766;28;20033;-77
2022/05/01 02:46:36;;;;;;;12.70;6.75;;;12.90;60.60;;;;;;5037593;28;20113;-77
2022/05/01 02:49:05;;;;;;;11.38;6.32;;;12.90;60.30;;;;;;5037487;28;20053;-77
2022/05/01 02:51:34;;;;;;;10.90;6.40;;;12.90;60.40;;;;;;5047361;28;20025;-77
2022/05/01 02:54:04;;;;;;;9.40;6.13;;;12.90;60.40;;;;;;5073908;28;20099;-77
2022/05/01 02:56:30;;;;;;;12.05;7.00;;;12.90;60.10;;;;;;5055764;28;20043;-76
2022/05/01 02:58:57;;;;;;;12.27;6.78;;;12.80;60.40;;;;;;5046536;28;20430;-77
2022/05/01 03:01:23;;;;;;;11.43;6.75;;;12.80;60.20;;;;;;5034677;28;20129;-77
2022/05/01 03:03:48;;;;;;;7.78;5.78;;;12.80;60.20;;;;;;5035934;28;20053;-76
2022/05/01 03:06:14;;;;;;;11.10;6.75;;;12.80;60.10;;;;;;5035968;28;20112;-77
2022/05/01 03:08:40;;;;;;;10.50;6.50;;;12.80;60.10;;;;;;5036051;28;20507;-76
2022/05/01 03:11:05;;;;;;;9.48;5.90;;;12.80;60.30;;;;;;5036234;28;21570;-77
2022/05/01 03:13:31;;;;;;;15.05;7.07;;;12.80;60.50;;;;;;5034423;28;20025;-77
2022/05/01 03:15:57;;;;;;;11.75;6.53;;;12.70;60.10;;;;;;5035944;28;20029;-76
2022/05/01 03:23:52;;;;;;;8.77;5.80;;;12.70;60.30;;;;;;5036553;28;20067;-77
2022/05/01 03:26:18;;;;;;;9.05;5.40;;;12.70;60.60;;;;;;5035387;28;20120;-77
2022/05/01 03:28:45;;;;;;;9.45;5.60;;;12.60;60.80;;;;;;5035207;28;20079;-77
2022/05/01 03:31:12;;;;;;;13.38;6.43;;;12.60;60.90;;;;;;5035453;28;20029;-77
2022/05/01 03:33:38;;;;;;;8.70;5.57;;;12.60;60.80;;;;;;5036661;28;20060;-77
2022/05/01 03:36:06;;;;;;;9.27;5.35;;;12.60;60.40;;;;;;5036550;28;20033;-77
2022/05/01 03:38:34;;;;;;;9.00;5.43;;;12.60;60.30;;;;;;5034774;28;20033;-77
2022/05/01 03:41:00;;;;;;;10.98;5.85;;;12.50;60.50;;;;;;5035399;28;20052;-77
2022/05/01 03:43:25;;;;;;;8.98;5.85;;;12.50;60.20;;;;;;5036228;28;20395;-77
2022/05/01 03:45:53;;;;;;;9.75;6.55;;;12.60;60.30;;;;;;5037226;28;20108;-77
2022/05/01 03:48:19;;;;;;;13.77;5.85;;;12.60;60.30;;;;;;5046685;28;20107;-77
2022/05/01 03:50:44;;;;;;;9.60;6.28;;;12.50;60.10;;;;;;5050639;28;20068;-77
2022/05/01 03:53:10;;;;;;;12.30;6.32;;;12.50;60.30;;;;;;5058198;28;20037;-77
2022/05/01 03:55:36;;;;;;;7.18;5.47;;;12.50;60.00;;;;;;5056324;28;20028;-77
2022/05/01 03:58:03;;;;;;;8.95;5.75;;;12.50;60.40;;;;;;5054277;28;20025;-76
2022/05/01 04:00:28;;;;;;;10.52;5.70;;;12.40;60.60;;;;;;5054743;28;20059;-76
2022/05/01 04:02:54;;;;;;;9.10;5.68;;;12.50;60.50;;;;;;5055979;28;20021;-77
2022/05/01 04:05:20;;;;;;;8.07;5.63;;;12.40;61.20;;;;;;5055794;28;20037;-77
2022/05/01 04:07:46;;;;;;;10.35;5.88;;;12.40;60.60;;;;;;5050310;28;20032;-77
2022/05/01 04:10:12;;;;;;;10.15;6.13;;;12.30;60.50;;;;;;5036061;28;20041;-77
2022/05/01 04:12:42;;;;;;;9.45;5.85;;;12.30;60.50;;;;;;5035600;28;20017;-77
2022/05/01 04:15:08;;;;;;;;;;;12.40;60.60;;;;;;5034596;28;20059;-77
2022/05/01 04:17:41;;;;;;;11.43;5.45;;;12.40;60.70;;;;;;5051086;28;20367;-77
2022/05/01 04:20:08;;;;;;;7.18;5.15;;;12.40;61.30;;;;;;5034297;28;20040;-77
2022/05/01 04:22:52;;;;;;;10.00;5.70;;;12.40;60.90;;;;;;5035916;28;20044;-77
2022/05/01 04:25:23;;;;;;;12.13;5.90;;;12.30;61.50;;;;;;5035604;28;20045;-77
2022/05/01 04:27:54;;;;;;;8.52;5.18;;;12.30;61.50;;;;;;5035567;28;20112;-77
2022/05/01 04:30:20;;;;;;;12.38;6.20;;;12.30;61.10;;;;;;5035388;28;20494;-77
2022/05/01 04:32:48;;;;;;;13.48;6.07;;;12.40;60.90;;;;;;5035276;28;20034;-77
2022/05/01 04:35:28;;;;;;;10.82;5.43;;;12.40;61.60;;;;;;5034988;28;20021;-77
2022/05/01 04:37:59;;;;;;;11.68;5.07;;;12.40;61.10;;;;;;5035575;28;20032;-77
2022/05/01 04:40:29;;;;;;;;;;;12.30;61.60;;;;;;5037597;28;20162;-77
2022/05/01 04:43:06;;;;;;;10.23;5.93;;;12.40;61.80;;;;;;5055022;28;19936;-77
2022/05/01 04:45:34;;;;;;;10.77;6.00;;;12.40;61.30;;;;;;5055041;28;20112;-76
2022/05/01 04:48:01;;;;;;;10.30;4.40;;;12.30;61.00;;;;;;5054123;28;20043;-77
2022/05/01 04:50:28;;;;;;;9.20;5.40;;;12.30;61.60;;;;;;5055013;28;20035;-77
2022/05/01 04:52:54;;;;;;;9.10;5.00;;;12.30;61.30;;;;;;5068159;28;20113;-77
2022/05/01 04:55:20;;;;;;;9.32;5.22;;;12.30;61.10;;;;;;5035247;28;20072;-77
2022/05/01 04:57:49;;;;;;;11.45;6.07;;;12.30;61.40;;;;;;5035264;28;20061;-77
2022/05/01 05:00:18;;;;;;;8.93;5.70;;;12.20;61.70;;;;;;5033967;28;20033;-77
2022/05/01 05:02:47;;;;;;;8.18;5.68;;;12.20;61.80;;;;;;5035076;28;20065;-77
2022/05/01 05:05:13;;;;;;;8.90;5.55;;;12.10;62.00;;;;;;5046191;28;20053;-77
2022/05/01 05:07:39;;;;;;;8.73;5.55;;;12.10;61.60;;;;;;5044482;28;20036;-76
2022/05/01 05:10:07;;;;;;;7.13;5.05;;;12.10;61.90;;;;;;5034820;28;20022;-77
2022/05/01 05:12:34;;;;;;;9.85;5.70;;;12.00;61.40;;;;;;5038511;28;20036;-76
2022/05/01 05:15:00;;;;;;;10.65;6.22;;;12.00;61.40;;;;;;5034914;28;20068;-77
2022/05/01 05:17:29;;;;;;;12.05;6.05;;;12.10;62.00;;;;;;5034994;28;20033;-77
2022/05/01 05:19:55;;;;;;;9.90;5.28;;;12.10;61.20;;;;;;5040749;28;20017;-77
2022/05/01 05:22:21;;;;;;;10.23;5.45;;;12.20;61.40;;;;;;5054730;28;20451;-76
2022/05/01 05:24:46;;;;;;;8.98;5.65;;;12.20;61.20;;;;;;5054659;28;20025;-76
2022/05/01 05:27:13;;;;;;;8.18;5.28;;;12.20;61.40;;;;;;5050695;28;20024;-76
2022/05/01 05:29:39;;;;;;;8.27;5.57;;;12.20;61.30;;;;;;5034575;28;20052;-76
2022/05/01 05:32:07;;;;;;;8.63;5.03;;;12.30;61.00;;;;;;5034521;28;20028;-77
2022/05/01 05:34:32;;;;;;;8.38;5.35;;;12.30;61.20;;;;;;5033373;28;20044;-77
2022/05/01 05:36:58;;;;;;;10.25;5.75;;;12.50;61.00;;;;;;5033344;28;20116;-77
2022/05/01 05:39:24;;;;;;;5.72;4.75;;;12.50;61.20;;;;;;5034662;28;20055;-77
2022/05/01 05:41:50;;;;;;;8.70;5.45;;;12.60;59.90;;;;;;5034729;28;20511;-76
2022/05/01 05:44:15;;;;;;;7.45;4.82;;;12.60;59.60;;;;;;5033207;28;20087;-77
2022/05/01 05:46:41;;;;;;;9.77;5.55;;;12.70;59.20;;;;;;5034932;28;20025;-77
2022/05/01 05:49:07;;;;;;;6.68;4.85;;;12.70;59.20;;;;;;5037099;28;20140;-77
2022/05/01 05:51:33;;;;;;;10.15;5.53;;;12.60;59.20;;;;;;5048964;28;20017;-77
2022/05/01 05:53:59;;;;;;;7.53;5.15;;;12.70;59.20;;;;;;5060107;28;20083;-77
2022/05/01 05:56:25;;;;;;;9.07;5.47;;;12.80;59.00;;;;;;5058269;28;20039;-77
2022/05/01 05:58:52;;;;;;;6.57;4.57;;;12.80;58.50;;;;;;5050806;28;20492;-77
2022/05/01 06:01:17;;;;;;;6.93;4.85;;;12.90;58.00;;;;;;5038516;28;20045;-76
2022/05/01 06:03:43;;;;;;;8.63;5.30;;;12.90;57.70;;;;;;5038144;28;20029;-76
2022/05/01 06:06:09;;;;;;;9.23;4.35;;;13.10;57.60;;;;;;5038187;28;20029;-76
2022/05/01 06:08:40;;;;;;;9.02;4.95;;;13.10;57.30;;;;;;5037714;28;20032;-77
2022/05/01 06:11:06;;;;;;;8.18;5.25;;;13.10;57.50;;;;;;5043903;28;20154;-77
2022/05/01 06:13:32;;;;;;;7.63;4.72;;;13.20;57.70;;;;;;5057976;28;20032;-77
2022/05/01 06:15:58;;;;;;;8.93;5.20;;;13.30;57.20;;;;;;5050795;28;20026;-77
2022/05/01 06:18:23;;;;;;;9.48;5.05;;;13.50;58.00;;;;;;5037909;28;20036;-77
2022/05/01 06:20:50;;;;;;;8.05;4.22;;;13.60;56.90;;;;;;5039317;28;20037;-77
2022/05/01 06:23:16;;;;;;;7.28;4.95;;;13.60;55.60;;;;;;5046996;28;20029;-80
2022/05/01 06:25:46;;;;;;;9.18;4.82;;;13.60;56.10;;;;;;5052359;28;20058;-79
2022/05/01 06:28:14;;;;;;;7.68;4.88;;;13.60;56.00;;;;;;5054699;28;20151;-79
2022/05/01 06:30:51;;;;;;;8.05;4.78;;;13.70;56.50;;;;;;5043190;28;20492;-80
2022/05/01 06:33:20;;;;;;;7.07;5.30;;;13.70;56.70;;;;;;5043041;28;20021;-80
2022/05/01 06:35:52;;;;;;;10.98;5.10;;;13.80;56.20;;;;;;5043401;28;20471;-89
2022/05/01 06:40:49;;;;;;;9.82;5.18;;;13.80;55.70;;;;;;5072143;27;20383;-80
2022/05/01 06:43:17;;;;;;;6.68;4.85;;;13.90;56.00;;;;;;5071763;28;20059;-78
2022/05/01 06:45:43;;;;;;;7.18;4.20;;;14.10;55.50;;;;;;5062852;28;20458;-78
2022/05/01 06:48:10;;;;;;;6.55;5.20;;;14.40;54.60;;;;;;5052402;28;20057;-83
2022/05/01 06:50:36;;;;;;;7.65;5.03;;;14.50;53.20;;;;;;5050817;28;20032;-78
2022/05/01 06:53:03;;;;;;;7.22;4.82;;;14.50;51.80;;;;;;5087681;28;20029;-75
2022/05/01 06:55:29;;;;;;;7.90;5.40;;;14.50;51.10;;;;;;5070139;28;20018;-79
2022/05/01 06:57:55;;;;;;;7.22;3.95;;;14.70;51.20;;;;;;5054905;28;20094;-78
2022/05/01 07:00:22;;;;;;;7.53;3.45;;;14.70;50.70;;;;;;5066426;28;20033;-77
2022/05/01 07:02:50;;;;;;;6.07;3.67;;;14.70;50.20;;;;;;5054786;28;20024;-82
2022/05/01 07:05:17;;;;;;;5.95;4.30;;;14.70;50.30;;;;;;5070275;28;20020;-80
2022/05/01 07:07:43;;;;;;;8.10;4.85;;;14.70;50.20;;;;;;5065351;28;20610;-81
2022/05/01 07:10:09;;;;;;;9.90;5.13;;;14.80;50.70;;;;;;5062335;28;20036;-82
2022/05/01 07:12:35;;;;;;;4.95;3.83;;;14.80;50.30;;;;;;5060334;28;20022;-80
2022/05/01 07:15:02;;;;;;;5.57;3.33;;;14.90;49.10;;;;;;5053653;28;20493;-80
2022/05/01 07:17:28;;;;;;;5.53;3.72;;;15.00;48.50;;;;;;5060781;28;20506;-82
2022/05/01 07:19:53;;;;;;;3.88;3.00;;;15.80;46.20;;;;;;5063333;28;20021;-80
2022/05/01 07:22:19;;;;;;;4.97;3.42;;;17.90;41.70;;;;;;5063372;28;20031;-82
2022/05/01 07:24:45;;;;;;;7.00;4.18;;;19.40;40.40;;;;;;5061599;28;20080;-76
2022/05/01 07:27:11;;;;;;;6.57;4.35;;;19.00;39.20;;;;;;5060433;28;20475;-75
2022/05/01 07:29:36;;;;;;;7.90;4.50;;;18.10;40.50;;;;;;5065962;28;20036;-75
2022/05/01 07:32:05;;;;;;;7.85;4.13;;;17.80;42.50;;;;;;5072044;28;20099;-75
2022/05/01 07:34:31;;;;;;;8.00;4.40;;;18.40;41.90;;;;;;5060685;28;20032;-76
2022/05/01 07:36:57;;;;;;;4.72;3.40;;;19.20;40.60;;;;;;5070285;28;20025;-77
2022/05/01 07:39:23;;;;;;;6.65;3.85;;;20.30;39.10;;;;;;5076886;28;20063;-76
2022/05/01 07:41:48;;;;;;;8.63;3.88;;;21.00;36.40;;;;;;5073569;28;20063;-76
2022/05/01 07:44:14;;;;;;;5.25;3.38;;;21.60;34.60;;;;;;5073223;28;20017;-76
2022/05/01 07:46:41;;;;;;;6.40;4.40;;;22.40;33.20;;;;;;5090622;28;20475;-77
2022/05/01 07:49:08;;;;;;;6.38;3.78;;;23.30;31.80;;;;;;5072313;28;20025;-77
2022/05/01 07:51:34;;;;;;;6.88;4.05;;;25.00;30.80;;;;;;5073980;28;20031;-77
2022/05/01 07:54:04;;;;;;;5.03;4.28;;;25.30;30.80;;;;;;5061727;28;20483;-77
2022/05/01 07:56:31;;;;;;;5.07;4.50;;;26.50;28.70;;;;;;5074632;28;20028;-77
2022/05/01 07:58:57;;;;;;;5.47;4.30;;;27.20;27.90;;;;;;5063147;28;20033;-78
2022/05/01 08:01:23;;;;;;;7.75;4.93;;;28.20;26.00;;;;;;5068892;28;20034;-78
2022/05/01 08:06:35;;;;;;;5.53;4.68;;;28.80;24.10;;;;;;5056367;28;20040;-78
2022/05/01 08:09:00;;;;;;;6.55;4.32;;;29.70;24.00;;;;;;5071182;28;20036;-78
2022/05/01 08:11:26;;;;;;;5.32;4.22;;;30.40;23.30;;;;;;5068280;28;20051;-78
2022/05/01 08:13:52;;;;;;;4.80;4.28;;;30.40;22.60;;;;;;5065999;28;20102;-78
2022/05/01 08:16:18;;;;;;;4.50;4.07;;;31.10;23.60;;;;;;5048185;28;20032;-78
2022/05/01 08:21:31;;;;;;;5.53;4.18;;;31.90;22.70;;;;;;5047974;28;20048;-78
2022/05/01 08:23:57;;;;;;;4.68;4.07;;;31.70;22.10;;;;;;5062015;28;20122;-78
2022/05/01 08:26:23;;;;;;;6.40;4.10;;;30.90;22.00;;;;;;5046074;28;20021;-77
2022/05/01 08:28:54;;;;;;;5.15;3.83;;;30.40;22.30;;;;;;5037921;28;20027;-77
2022/05/01 08:31:19;;;;;;;5.47;4.05;;;29.80;23.90;;;;;;5043700;28;20017;-77
2022/05/01 08:33:45;;;;;;;5.95;4.07;;;29.80;23.70;;;;;;5074766;28;20036;-77
2022/05/01 08:36:11;;;;;;;4.60;4.15;;;29.90;23.60;;;;;;5043393;28;20028;-77
2022/05/01 08:38:37;;;;;;;4.65;4.15;;;29.40;23.40;;;;;;5044808;28;20080;-77
2022/05/01 08:41:04;;;;;;;5.38;4.00;;;28.50;23.50;;;;;;5047000;28;20025;-77
2022/05/01 08:43:31;;;;;;;5.13;4.03;;;27.70;24.40;;;;;;5043690;28;20024;-77
2022/05/01 08:46:19;;;;;;;6.07;4.18;;;27.10;24.80;;;;;;5044859;28;20017;-77
2022/05/01 08:49:05;;;;;;;5.72;4.05;;;26.80;25.50;;;;;;5049876;28;20576;-77
2022/05/01 08:51:38;;;;;;;5.10;4.07;;;27.40;25.10;;;;;;5045865;28;20029;-75
2022/05/01 08:54:13;;;;;;;4.15;3.75;;;27.90;25.00;;;;;;5038962;28;20017;-76
2022/05/01 08:56:41;;;;;;;6.03;3.83;;;27.90;24.40;;;;;;5045671;28;20091;-76
2022/05/01 08:59:11;;;;;;;3.63;3.20;;;28.00;24.90;;;;;;5049337;28;20033;-76
2022/05/01 09:01:39;;;;;;;6.80;3.67;;;28.50;24.60;;;;;;5047292;28;20079;-76
2022/05/01 09:04:06;;;;;;;5.13;3.40;;;28.90;23.60;;;;;;5042078;28;20024;-76
2022/05/01 09:06:34;;;;;;;4.40;3.70;;;29.30;22.50;;;;;;5045891;28;20025;-75
2022/05/01 09:09:11;;;;;;;5.90;3.65;;;29.20;23.00;;;;;;5052176;28;20059;-76
2022/05/01 09:14:26;;;;;;;3.50;3.20;;;28.80;23.50;;;;;;5041534;28;20035;-76
2022/05/01 09:17:15;;;;;;;3.97;3.58;;;28.50;24.10;;;;;;5040863;28;20033;-76
2022/05/01 09:19:48;;;;;;;4.10;3.33;;;27.80;24.30;;;;;;5042417;28;20024;-76
2022/05/01 09:22:14;;;;;;;3.55;2.70;;;28.40;23.80;;;;;;5053025;28;20064;-76
2022/05/01 09:24:40;;;;;;;3.90;3.00;;;28.60;22.30;;;;;;5051462;28;20044;-76
2022/05/01 09:27:21;;;;;;;3.58;2.90;;;28.80;22.40;;;;;;5051558;28;20021;-76
2022/05/01 09:29:47;;;;;;;3.00;2.70;;;28.80;22.30;;;;;;5048526;28;20067;-75
2022/05/01 09:32:13;;;;;;;5.82;3.00;;;29.30;22.40;;;;;;5050782;28;20017;-75
2022/05/01 09:34:40;;;;;;;3.67;2.70;;;29.60;21.50;;;;;;5052729;28;20033;-75
2022/05/01 09:37:18;;;;;;;3.03;2.60;;;29.90;21.30;;;;;;5052898;28;20102;-75
2022/05/01 09:39:49;;;;;;;3.80;3.15;;;29.60;22.40;;;;;;5052480;28;20057;-75
2022/05/01 09:42:21;;;;;;;3.15;2.67;;;29.40;22.50;;;;;;5054341;28;20399;-75
2022/05/01 09:45:12;;;;;;;3.33;2.90;;;29.60;22.00;;;;;;5049514;28;20403;-76
2022/05/01 09:47:49;;;;;;;4.45;2.75;;;29.90;21.60;;;;;;5051631;28;20025;-74
2022/05/01 09:50:15;;;;;;;4.15;2.70;;;29.40;21.60;;;;;;5052782;28;20751;-75
2022/05/01 09:53:01;;;;;;;3.47;2.80;;;28.80;22.90;;;;;;5051771;28;20017;-75
2022/05/01 09:55:28;;;;;;;4.63;3.00;;;28.60;23.30;;;;;;5052412;28;20651;-76
2022/05/01 09:58:10;;;;;;;4.75;2.70;;;28.90;22.20;;;;;;5046131;28;20033;-76
2022/05/01 10:00:42;;;;;;;4.90;3.20;;;29.50;21.20;;;;;;5045803;28;20608;-76
2022/05/01 10:03:46;;;;;;;5.10;2.85;;;29.30;21.60;;;;;;5052035;28;20128;-76
2022/05/01 10:06:15;;;;;;;3.92;2.42;;;29.50;20.90;;;;;;5039197;28;20106;-74
2022/05/01 10:08:45;;;;;;;2.92;2.35;;;30.10;21.70;;;;;;5051388;28;20025;-76
2022/05/01 10:11:17;;;;;;;4.43;2.80;;;30.00;22.00;;;;;;5048911;28;20032;-77
2022/05/01 10:13:45;;;;;;;5.10;2.45;;;29.80;22.00;;;;;;5051102;28;20159;-76
2022/05/01 10:16:15;;;;;;;3.03;2.45;;;29.10;22.40;;;;;;5050380;28;20082;-76
2022/05/01 10:18:43;;;;;;;2.75;2.28;;;29.10;23.20;;;;;;5048613;28;20043;-76
2022/05/01 10:21:08;;;;;;;4.07;3.08;;;28.60;22.20;;;;;;5053982;28;20070;-75
2022/05/01 10:23:35;;;;;;;4.15;2.55;;;27.80;22.20;;;;;;5047864;28;20026;-76
2022/05/01 10:26:17;;;;;;;5.10;2.88;;;27.90;24.60;;;;;;5051208;28;20025;-76
2022/05/01 10:28:53;;;;;;;3.80;3.00;;;26.80;23.40;;;;;;5051817;28;20029;-76
2022/05/01 10:34:44;;;;;;;3.92;3.10;;;25.40;25.90;;;;;;5050130;28;20602;-76
2022/05/01 10:37:23;;;;;;;3.30;2.35;;;25.20;27.20;;;;;;5051370;28;20495;-76
2022/05/01 10:39:49;;;;;;;6.60;2.90;;;24.50;27.30;;;;;;5044121;28;20046;-77
2022/05/01 10:42:34;;;;;;;5.18;2.80;;;24.10;28.20;;;;;;5049084;28;20028;-77
2022/05/01 10:45:01;;;;;;;4.45;3.40;;;23.50;28.10;;;;;;5052662;28;20029;-78
2022/05/01 10:47:38;;;;;;;4.78;2.90;;;23.40;28.20;;;;;;5053487;28;20028;-74
2022/05/01 10:50:11;;;;;;;6.57;3.13;;;23.50;28.90;;;;;;5053032;28;20112;-72
2022/05/01 10:53:05;;;;;;;5.00;3.47;;;23.30;30.20;;;;;;5052106;28;20028;-76
2022/05/01 10:55:52;;;;;;;9.02;4.75;;;23.10;30.70;;;;;;5049967;28;20563;-76
2022/05/01 10:58:30;;;;;;;5.97;4.68;;;22.80;28.30;;;;;;5049379;28;20052;-72
2022/05/01 11:00:56;;;;;;;7.78;3.70;;;22.70;29.60;;;;;;5050294;28;20097;-74
2022/05/01 11:03:30;;;;;;;4.72;3.13;;;22.30;29.20;;;;;;5047999;28;20028;-74
2022/05/01 11:06:01;;;;;;;5.60;2.70;;;22.10;29.80;;;;;;5051531;28;20024;-75
2022/05/01 11:08:30;;;;;;;8.10;2.65;;;22.40;31.20;;;;;;5046495;28;20021;-75
2022/05/01 11:10:59;;;;;;;3.22;2.17;;;22.60;29.50;;;;;;5054691;28;20029;-73
2022/05/01 11:13:31;;;;;;;7.10;3.20;;;22.30;29.80;;;;;;5061023;28;20020;-72
2022/05/01 11:15:57;;;;;;;7.40;4.60;;;22.20;30.00;;;;;;5038020;28;20025;-72
2022/05/01 11:18:35;;;;;;;4.30;2.80;;;22.30;30.10;;;;;;5061843;28;20100;-72
2022/05/01 11:21:19;;;;;;;4.03;2.30;;;22.40;30.90;;;;;;5058791;28;20041;-72
2022/05/01 11:23:46;;;;;;;3.80;2.35;;;22.20;30.50;;;;;;5070893;28;20037;-71
2022/05/01 11:26:17;;;;;;;4.50;2.72;;;22.40;30.90;;;;;;5071253;28;20021;-71
2022/05/01 11:28:48;;;;;;;3.50;2.50;;;22.50;31.60;;;;;;5077091;28;20017;-71
2022/05/01 11:31:36;;;;;;;3.40;2.30;;;22.80;31.20;;;;;;5065466;28;20032;-73
2022/05/01 11:34:17;;;;;;;2.60;1.75;;;22.80;30.70;;;;;;5078322;28;20108;-73
2022/05/01 11:36:58;;;;;;;6.18;3.30;;;22.70;28.20;;;;;;5075537;28;20066;-74
2022/05/01 11:39:51;;;;;;;10.23;5.82;;;22.30;27.40;;;;;;5068025;28;20106;-73
2022/05/01 11:42:25;;;;;;;4.68;2.63;;;22.30;29.30;;;;;;5069703;28;20012;-73
2022/05/01 11:44:53;;;;;;;9.60;4.45;;;22.50;29.20;;;;;;5065569;28;20033;-74
2022/05/01 11:47:19;;;;;;;3.90;2.28;;;22.70;29.50;;;;;;5064277;28;20023;-73
2022/05/01 11:49:45;;;;;;;5.28;2.92;;;22.40;28.50;;;;;;5050245;28;20616;-77
2022/05/01 11:52:13;;;;;;;4.38;3.35;;;22.40;29.30;;;;;;5054379;28;20756;-76
2022/05/01 11:54:50;;;;;;;6.43;3.22;;;22.50;28.90;;;;;;5075027;28;20028;-74
2022/05/01 12:02:57;;;;;;;3.22;2.13;;;22.30;28.90;;;;;;5048974;28;20116;-73
2022/05/01 12:05:23;;;;;;;3.67;2.75;;;22.40;28.80;;;;;;5048441;28;20028;-73
2022/05/01 12:07:54;;;;;;;4.40;2.70;;;22.30;29.00;;;;;;5053879;28;20025;-73
2022/05/01 12:10:20;;;;;;;4.93;2.78;;;22.50;28.70;;;;;;5054612;28;20022;-73
2022/05/01 12:12:45;;;;;;;3.97;2.22;;;22.30;29.20;;;;;;5049958;28;20048;-74
2022/05/01 12:15:11;;;;;;;3.38;2.00;;;22.30;31.10;;;;;;5049378;28;20439;-74
2022/05/01 12:17:40;;;;;;;4.45;2.45;;;22.30;28.00;;;;;;5046347;28;20085;-74
2022/05/01 12:20:07;;;;;;;3.33;2.08;;;22.20;30.20;;;;;;5051890;28;20033;-73
2022/05/01 12:22:37;;;;;;;3.92;1.88;;;22.40;29.40;;;;;;5054261;28;20701;-74
2022/05/01 12:25:06;;;;;;;4.32;2.72;;;22.60;30.10;;;;;;5053361;28;20075;-73
2022/05/01 12:27:33;;;;;;;6.07;2.15;;;22.60;29.50;;;;;;5053327;28;20025;-73
2022/05/01 12:30:02;;;;;;;4.63;2.58;;;22.60;29.70;;;;;;5053278;28;20033;-74
2022/05/01 12:32:28;;;;;;;3.05;2.03;;;22.70;31.20;;;;;;5050242;28;20029;-74
2022/05/01 12:34:56;;;;;;;4.38;2.47;;;22.70;30.30;;;;;;5053046;28;20497;-74
2022/05/01 12:37:29;;;;;;;3.25;2.08;;;22.80;29.80;;;;;;5051715;28;20025;-74
2022/05/01 12:39:59;;;;;;;2.33;1.95;;;22.50;28.70;;;;;;5053570;28;20056;-74
2022/05/01 12:45:18;;;;;;;4.78;2.63;;;22.40;28.40;;;;;;5052621;28;20089;-74
2022/05/01 12:47:51;;;;;;;2.78;2.20;;;22.40;31.00;;;;;;5053450;28;20025;-74
2022/05/01 12:50:20;;;;;;;2.90;2.17;;;22.50;30.00;;;;;;5051188;28;20020;-74
2022/05/01 12:52:48;;;;;;;3.30;2.55;;;22.50;29.20;;;;;;5054178;28;20020;-74
2022/05/01 12:55:19;;;;;;;3.38;1.73;;;22.70;28.50;;;;;;5054205;28;20070;-74
2022/05/01 12:58:07;;;;;;;3.95;2.40;;;22.60;27.30;;;;;;5054001;28;20082;-73
2022/05/01 13:00:41;;;;;;;2.80;2.10;;;22.80;28.60;;;;;;5051003;28;20128;-73
2022/05/01 13:03:13;;;;;;;4.47;2.10;;;23.10;29.60;;;;;;5047172;28;20406;-73
2022/05/01 13:05:40;;;;;;;3.88;2.65;;;23.30;28.30;;;;;;5050398;28;20036;-73
2022/05/01 13:08:19;;;;;;;3.13;2.22;;;23.10;26.70;;;;;;5053314;28;20108;-73
2022/05/01 13:11:23;;;;;;;4.03;2.60;;;22.90;26.80;;;;;;5053858;28;20039;-72
2022/05/01 13:13:58;;;;;;;3.55;1.85;;;22.80;27.40;;;;;;5052196;28;20017;-72
2022/05/01 13:16:30;;;;;;;3.55;2.40;;;23.00;30.30;;;;;;5077089;28;20091;-73
2022/05/01 13:18:58;;;;;;;4.50;2.22;;;23.10;29.00;;;;;;5051462;28;20049;-73
2022/05/01 13:21:30;;;;;;;3.72;2.20;;;23.20;30.00;;;;;;5051623;28;20391;-72
2022/05/01 13:24:01;;;;;;;6.15;2.10;;;22.90;28.50;;;;;;5052090;28;20029;-73
2022/05/01 13:26:26;;;;;;;3.67;2.15;;;22.70;29.00;;;;;;5052250;28;20029;-74
2022/05/01 13:28:52;;;;;;;5.47;2.60;;;22.80;29.60;;;;;;5054396;28;20505;-74
2022/05/01 13:31:18;;;;;;;3.38;2.13;;;22.60;27.90;;;;;;5053718;28;20021;-74